KDAY

James M Cox Dayton International Airport

Dayton, Ohio, USA
METAR KDAY 250056Z 09005KT 10SM FEW250 23/11 A3010 RMK AO2 SLP186 T02330106
Observed Flight Rules
May-25 @ 00:56 UTC (18 minutes ago) Visual Flight Rules
Wind Visibility Clouds
90° at 5 knots 10 miles
  • Few at 25,000' AGL
Temperatures Readings
Current 23°C / 73°F
Dewpoint 11°C / 52°F
Humidity 47%
Altimeter 30.1" Hg
Pressure 1018.6 hPa
Elevation 305
METAR KDAY 250056Z 09005KT 10SM FEW250 23/11 A3010 RMK AO2 SLP186 T02330106
Observed Flight Rules
May-25 @ 00:56 UTC
(18 minutes ago)
VFR
Wind Visibility
90° at 5 knots 10 miles
Clouds
  • Few at 25,000' AGL
Temperature Dewpoint
23°C / 73°F 11°C / 52°F
Humidity Altimeter Pressure
47% 30.1" Hg 1018.6 hPa